createdAt,value
2023-12-05T06:47:28.556Z,19.20
2023-12-05T06:52:31.646Z,16.60
2023-12-05T06:57:34.629Z,17.90
2023-12-05T07:02:38.907Z,17.17
2023-12-05T07:07:42.062Z,19.13
2023-12-05T07:12:45.419Z,18.23
2023-12-05T07:17:50.002Z,16.63
2023-12-05T07:22:53.077Z,15.93
2023-12-05T07:27:56.174Z,15.60
2023-12-05T07:33:00.669Z,17.77
2023-12-05T07:38:03.609Z,18.20
2023-12-05T07:43:06.733Z,17.57
2023-12-05T07:48:11.079Z,25.53
2023-12-05T07:53:13.981Z,21.50
2023-12-05T07:58:16.898Z,19.03
2023-12-05T08:03:21.309Z,14.83
2023-12-05T08:08:25.121Z,15.37
2023-12-05T08:13:28.121Z,15.17
2023-12-05T08:18:32.439Z,16.53
2023-12-05T08:23:35.374Z,19.00
2023-12-05T08:28:38.645Z,17.70
2023-12-05T08:33:42.976Z,17.17
2023-12-05T08:38:46.034Z,17.27
2023-12-05T08:43:49.220Z,18.80
2023-12-05T08:48:53.550Z,19.10
2023-12-05T08:53:56.587Z,18.83
2023-12-05T08:58:59.562Z,20.33
2023-12-05T09:04:04.030Z,17.13
2023-12-05T09:09:07.020Z,20.37
2023-12-05T09:14:09.959Z,19.43
2023-12-05T09:19:14.302Z,20.23
2023-12-05T09:24:18.038Z,21.00
2023-12-05T09:29:21.002Z,21.97
2023-12-05T09:34:25.230Z,23.00
2023-12-05T09:39:30.407Z,22.87
2023-12-05T09:44:34.530Z,22.13
2023-12-05T09:49:42.045Z,22.27
2023-12-05T09:54:45.695Z,22.57
2023-12-05T09:59:48.731Z,22.60
2023-12-05T10:05:00.677Z,21.23
2023-12-05T10:10:05.658Z,21.53
2023-12-05T10:15:09.809Z,26.07
2023-12-05T10:20:14.446Z,22.87
2023-12-05T10:25:18.013Z,20.93
2023-12-05T10:30:32.470Z,22.53
2023-12-05T10:35:36.907Z,21.60
2023-12-05T10:40:55.472Z,21.43
2023-12-05T10:45:59.187Z,21.73
2023-12-05T10:51:03.825Z,22.40
2023-12-05T10:56:13.648Z,20.67
2023-12-05T11:01:18.623Z,23.47
2023-12-05T11:06:23.969Z,24.27
2023-12-05T11:11:28.563Z,20.83
2023-12-05T11:16:38.153Z,20.37
2023-12-05T11:21:55.685Z,19.73
2023-12-05T11:27:16.333Z,20.87
2023-12-05T11:32:26.583Z,22.03
2023-12-05T11:37:54.287Z,19.70
2023-12-05T11:43:06.791Z,20.33
2023-12-05T11:48:12.897Z,19.87
2023-12-05T11:53:20.528Z,19.10
2023-12-05T11:58:31.550Z,19.37
2023-12-05T12:03:50.006Z,19.23
2023-12-05T12:08:57.653Z,19.97
2023-12-05T12:14:13.428Z,18.87
2023-12-05T12:19:17.828Z,19.47
2023-12-05T12:24:24.191Z,18.30
2023-12-05T12:29:28.825Z,18.47
2023-12-05T12:34:32.128Z,18.50
2023-12-05T12:39:37.797Z,18.20
2023-12-05T12:44:41.027Z,18.77
2023-12-05T12:49:44.711Z,17.70
2023-12-05T12:54:51.388Z,16.90
2023-12-05T13:00:29.780Z,16.50
2023-12-05T13:05:20.793Z,18.00
2023-12-05T13:10:25.416Z,17.20
2023-12-05T13:15:29.986Z,16.17
2023-12-05T13:20:36.263Z,19.63
2023-12-05T13:25:45.884Z,18.10
2023-12-05T13:30:49.478Z,20.37
2023-12-05T13:35:53.516Z,18.50
2023-12-05T13:40:57.970Z,17.60
2023-12-05T13:46:00.953Z,18.40
2023-12-05T13:51:05.189Z,17.23
2023-12-05T13:56:11.716Z,17.67
2023-12-05T14:01:14.746Z,18.83
2023-12-05T14:06:17.961Z,18.10
2023-12-05T14:11:22.357Z,20.40
2023-12-05T14:16:26.508Z,18.83
2023-12-05T14:21:31.256Z,23.17
2023-12-05T14:26:35.612Z,20.33
2023-12-05T14:31:38.577Z,22.20
2023-12-05T14:36:41.571Z,19.93
2023-12-05T14:41:46.851Z,20.37
2023-12-05T14:46:49.809Z,19.30
2023-12-05T14:51:52.772Z,18.80
2023-12-05T14:56:57.074Z,20.77
2023-12-05T15:02:00.072Z,20.80
2023-12-05T15:07:03.399Z,22.20
2023-12-05T15:12:10.233Z,21.80
2023-12-05T15:17:13.164Z,22.30
2023-12-05T15:22:16.432Z,22.73
2023-12-05T15:27:21.289Z,21.53
2023-12-05T15:32:28.050Z,20.40
2023-12-05T15:37:32.132Z,19.63
2023-12-05T15:42:36.761Z,21.83
2023-12-05T15:47:40.285Z,22.83
2023-12-05T15:52:43.238Z,20.13
2023-12-05T15:57:47.618Z,20.17
2023-12-05T16:02:50.656Z,20.23
2023-12-05T16:07:53.563Z,20.20
2023-12-05T16:12:57.861Z,19.20
2023-12-05T16:18:01.115Z,19.23
2023-12-05T16:23:04.054Z,22.20
2023-12-05T16:28:08.509Z,19.73
2023-12-05T16:33:11.535Z,20.90
2023-12-05T16:38:14.542Z,18.93
2023-12-05T16:43:18.892Z,20.83
2023-12-05T16:48:22.085Z,19.07
2023-12-05T16:53:25.026Z,19.77
2023-12-05T16:58:29.390Z,20.50
2023-12-05T17:03:32.474Z,23.50
2023-12-05T17:08:36.909Z,21.97
2023-12-05T17:13:41.179Z,21.97
2023-12-05T17:18:44.328Z,23.67
2023-12-05T17:23:47.258Z,21.20
2023-12-05T17:28:52.797Z,22.97
2023-12-05T17:33:55.867Z,25.10
2023-12-05T17:38:58.835Z,24.80
2023-12-05T17:44:03.156Z,25.70
2023-12-05T17:49:07.012Z,23.57
2023-12-05T17:54:10.224Z,24.83
2023-12-05T17:59:14.642Z,25.73
2023-12-05T18:04:17.740Z,22.90
2023-12-05T18:09:20.852Z,22.63
2023-12-05T18:14:27.600Z,22.67
2023-12-05T18:19:30.604Z,23.23
2023-12-05T18:24:33.637Z,29.37
2023-12-05T18:29:41.033Z,26.97
2023-12-05T18:34:44.636Z,25.97
2023-12-05T18:39:47.767Z,25.23
2023-12-05T18:44:52.617Z,23.40
2023-12-05T18:49:56.779Z,24.40
2023-12-05T18:55:01.722Z,23.00
2023-12-05T19:00:10.802Z,25.00
2023-12-05T19:05:15.558Z,22.63
2023-12-05T19:10:20.130Z,23.90
2023-12-05T19:15:25.422Z,23.40
2023-12-05T19:20:32.453Z,20.87
2023-12-05T19:25:37.994Z,25.37
2023-12-05T19:30:48.190Z,23.80
2023-12-05T19:35:53.758Z,24.63
2023-12-05T19:40:59.836Z,24.70
2023-12-05T19:46:07.062Z,22.50
2023-12-05T19:51:12.455Z,22.37
2023-12-05T19:56:17.737Z,21.67
2023-12-05T20:01:25.241Z,25.37
2023-12-05T20:06:30.949Z,24.83
2023-12-05T20:11:37.385Z,22.53
2023-12-05T20:16:44.337Z,23.43
2023-12-05T20:21:50.033Z,24.57
2023-12-05T20:26:55.258Z,23.00
2023-12-05T20:32:02.160Z,26.30
2023-12-05T20:37:08.267Z,27.87
2023-12-05T20:42:13.611Z,27.10
2023-12-05T20:47:19.502Z,29.77
2023-12-05T20:52:24.332Z,25.97
2023-12-05T20:57:28.275Z,27.90
2023-12-05T21:02:32.665Z,27.67
2023-12-05T21:07:35.895Z,24.90
2023-12-05T21:12:39.033Z,30.93
2023-12-05T21:17:43.437Z,28.40
2023-12-05T21:22:46.414Z,32.07
2023-12-05T21:27:50.100Z,30.63
2023-12-05T21:32:54.784Z,30.30
2023-12-05T21:37:57.715Z,32.60
2023-12-05T21:43:00.635Z,29.07
2023-12-05T21:48:05.272Z,32.13
2023-12-05T21:53:08.220Z,28.43
2023-12-05T21:58:11.182Z,29.07
2023-12-05T22:03:15.645Z,29.97
2023-12-05T22:08:18.589Z,30.23
2023-12-05T22:13:21.781Z,27.83
2023-12-05T22:18:26.163Z,27.60
2023-12-05T22:23:33.581Z,29.93
2023-12-05T22:28:38.393Z,28.30
2023-12-05T22:33:43.016Z,26.23
2023-12-05T22:38:46.086Z,26.43
2023-12-05T22:43:50.385Z,28.00
2023-12-05T22:48:55.113Z,26.90
2023-12-05T22:53:59.262Z,29.10
2023-12-05T22:59:02.184Z,24.90
2023-12-05T23:04:06.658Z,26.23
2023-12-05T23:09:09.576Z,27.53
2023-12-05T23:14:12.775Z,31.37
2023-12-05T23:19:17.448Z,26.97
2023-12-05T23:24:20.527Z,28.83
2023-12-05T23:29:24.073Z,27.60
2023-12-05T23:34:29.285Z,27.87
2023-12-05T23:39:33.014Z,24.60
2023-12-05T23:44:36.257Z,26.70
2023-12-05T23:49:40.599Z,27.97
2023-12-05T23:54:43.511Z,29.20
2023-12-05T23:59:46.404Z,25.70
